Time;durP1;ratioP1;P1;durP2;ratioP2;P2;SDS_P1;SDS_P2;PMS_P1;PMS_P2;Temp;Humidity;BMP_temperature;BMP_pressure;BME280_temperature;BME280_humidity;BME280_pressure;Samples;Min_cycle;Max_cycle;Signal;HPM_P1;HPM_P2
2022/03/25 00:02:23;;;;;;;;;;;;;;;2.52;100.00;99414.69;10345686;28;19950;-77
2022/03/25 00:07:26;;;;;;;;;;;;;;;2.27;100.00;99416.94;10393364;28;19998;-77
2022/03/25 00:12:28;;;;;;;;;;;;;;;2.25;100.00;99419.03;10379450;28;19975;-78
2022/03/25 00:17:29;;;;;;;;;;;;;;;2.22;100.00;99411.56;10384419;28;20304;-77
2022/03/25 00:22:29;;;;;;;;;;;;;;;2.21;100.00;99421.38;10382362;28;19988;-77
2022/03/25 00:27:32;;;;;;;;;;;;;;;2.13;100.00;99411.16;10375079;28;19929;-77
2022/03/25 00:32:33;;;;;;;;;;;;;;;2.08;100.00;99416.34;10365806;28;19929;-76
2022/03/25 00:37:34;;;;;;;;;;;;;;;2.00;100.00;99419.38;10381086;28;20408;-76
2022/03/25 00:42:35;;;;;;;;;;;;;;;1.93;100.00;99405.53;10357515;28;20664;-76
2022/03/25 00:47:39;;;;;;;;;;;;;;;1.86;100.00;99405.66;10376642;28;19933;-77
2022/03/25 00:52:42;;;;;;;;;;;;;;;1.85;100.00;99409.34;10349455;28;20011;-79
2022/03/25 00:57:43;;;;;;;;;;;;;;;1.84;100.00;99409.59;10359466;28;19926;-77
2022/03/25 01:02:47;;;;;;;;;;;;;;;1.68;100.00;99401.38;10362112;28;19933;-79
2022/03/25 01:07:54;;;;;;;;;;;;;;;1.59;100.00;99402.00;10396887;28;19929;-80
2022/03/25 01:12:56;;;;;;;;;;;;;;;1.52;100.00;99396.84;10395016;28;19930;-78
2022/03/25 01:17:57;;;;;;;;;;;;;;;1.47;100.00;99401.25;10419032;28;19952;-78
2022/03/25 01:23:05;;;;;;;;;;;;;;;1.42;100.00;99394.81;10419969;28;19925;-77
2022/03/25 01:28:06;;;;;;;;;;;;;;;1.32;100.00;99391.97;10414113;28;20024;-77
2022/03/25 01:33:06;;;;;;;;;;;;;;;1.34;100.00;99402.31;10399345;28;19933;-77
2022/03/25 01:38:13;;;;;;;;;;;;;;;1.32;100.00;99396.44;10356744;28;20381;-76
2022/03/25 01:43:16;;;;;;;;;;;;;;;1.26;100.00;99392.09;10413055;28;20256;-78
2022/03/25 01:48:18;;;;;;;;;;;;;;;1.18;100.00;99393.25;10409989;28;20111;-79
2022/03/25 01:53:22;;;;;;;;;;;;;;;1.09;100.00;99381.44;10383894;28;20400;-76
2022/03/25 01:58:29;;;;;;;;;;;;;;;1.04;100.00;99378.72;10390787;28;19932;-76
2022/03/25 02:03:31;;;;;;;;;;;;;;;1.03;100.00;99385.84;10413268;28;19944;-76
2022/03/25 02:08:32;;;;;;;;;;;;;;;0.92;100.00;99386.66;10377406;28;19965;-78
2022/03/25 02:13:32;;;;;;;;;;;;;;;0.87;100.00;99383.91;10368113;28;19948;-78
2022/03/25 02:18:35;;;;;;;;;;;;;;;0.75;100.00;99383.13;10386262;28;19961;-77
2022/03/25 02:23:37;;;;;;;;;;;;;;;0.74;100.00;99379.69;10397316;28;19933;-77
2022/03/25 02:28:38;;;;;;;;;;;;;;;0.63;100.00;99377.84;10385069;28;19925;-78
2022/03/25 02:33:40;;;;;;;;;;;;;;;0.58;100.00;99377.75;10346484;28;19925;-77
2022/03/25 02:38:41;;;;;;;;;;;;;;;0.50;100.00;99375.44;10376827;28;19929;-76
2022/03/25 02:43:44;;;;;;;;;;;;;;;0.43;100.00;99372.91;10396817;28;20049;-77
2022/03/25 02:48:46;;;;;;;;;;;;;;;0.40;100.00;99381.31;10397893;28;19936;-78
2022/03/25 02:53:46;;;;;;;;;;;;;;;0.35;100.00;99390.94;10423051;28;19993;-77
2022/03/25 02:58:47;;;;;;;;;;;;;;;0.24;100.00;99389.88;10434030;28;19971;-80
2022/03/25 03:03:48;;;;;;;;;;;;;;;0.15;100.00;99397.34;11584281;23;19933;-78
2022/03/25 03:08:49;;;;;;;;;;;;;;;0.10;100.00;99393.78;10359043;28;19925;-77
2022/03/25 03:13:53;;;;;;;;;;;;;;;0.08;100.00;99395.81;10381238;28;19929;-78
2022/03/25 03:18:53;;;;;;;;;;;;;;;0.04;100.00;99397.31;10389215;28;20833;-79
2022/03/25 03:23:56;;;;;;;;;;;;;;;-0.10;100.00;99397.50;10369856;28;19929;-80
2022/03/25 03:28:56;;;;;;;;;;;;;;;-0.14;100.00;99404.28;10368047;28;19929;-77
2022/03/25 03:33:57;;;;;;;;;;;;;;;0.05;100.00;99412.94;10385794;28;20411;-78
2022/03/25 03:38:58;;;;;;;;;;;;;;;-0.16;100.00;99401.06;10363939;28;20021;-76
2022/03/25 03:43:58;;;;;;;;;;;;;;;-0.17;100.00;99401.31;10366178;28;19940;-76
2022/03/25 03:48:59;;;;;;;;;;;;;;;-0.24;100.00;99401.38;10365724;28;20747;-77
2022/03/25 03:54:00;;;;;;;;;;;;;;;-0.36;100.00;99397.91;10330156;28;20284;-77
2022/03/25 03:59:19;;;;;;;;;;;;;;;-0.41;100.00;99398.56;10365798;28;19928;-77
2022/03/25 04:04:25;;;;;;;;;;;;;;;-0.43;100.00;99400.63;10405514;28;19959;-77
2022/03/25 04:09:27;;;;;;;;;;;;;;;-0.39;100.00;99391.22;10389171;28;19936;-76
2022/03/25 04:14:29;;;;;;;;;;;;;;;-0.39;100.00;99398.34;10388280;28;20452;-79
2022/03/25 04:19:30;;;;;;;;;;;;;;;-0.43;100.00;99399.81;10435141;28;19964;-78
2022/03/25 04:24:31;;;;;;;;;;;;;;;-0.50;100.00;99399.09;10430837;28;19952;-78
2022/03/25 04:29:31;;;;;;;;;;;;;;;-0.58;100.00;99397.56;10423860;28;19978;-78
2022/03/25 04:34:35;;;;;;;;;;;;;;;-0.55;100.00;99405.03;10433993;28;19929;-78
2022/03/25 04:39:37;;;;;;;;;;;;;;;-0.61;100.00;99398.84;10422764;28;19913;-77
2022/03/25 04:44:39;;;;;;;;;;;;;;;-0.71;100.00;99406.47;10436726;28;19913;-76
2022/03/25 04:49:42;;;;;;;;;;;;;;;-0.69;100.00;99419.44;10404432;28;19944;-75
2022/03/25 04:54:45;;;;;;;;;;;;;;;-0.79;100.00;99416.50;10422513;28;19933;-79
2022/03/25 04:59:47;;;;;;;;;;;;;;;-0.75;100.00;99418.47;10412288;28;19913;-78
2022/03/25 05:04:49;;;;;;;;;;;;;;;-0.81;100.00;99421.19;10402968;28;19925;-76
2022/03/25 05:09:51;;;;;;;;;;;;;;;-0.79;100.00;99422.59;10416103;28;20390;-80
2022/03/25 05:14:51;;;;;;;;;;;;;;;-0.87;100.00;99422.88;10407103;28;19929;-78
2022/03/25 05:19:52;;;;;;;;;;;;;;;-0.83;100.00;99431.13;10394564;28;19969;-77
2022/03/25 05:24:54;;;;;;;;;;;;;;;-0.82;100.00;99436.22;10383133;28;19936;-77
2022/03/25 05:29:57;;;;;;;;;;;;;;;-0.73;100.00;99441.97;10386120;28;19925;-76
2022/03/25 05:35:00;;;;;;;;;;;;;;;-0.71;100.00;99446.00;10394621;28;19933;-76
2022/03/25 05:40:01;;;;;;;;;;;;;;;-0.50;100.00;99449.22;10373530;28;19925;-75
2022/03/25 05:45:02;;;;;;;;;;;;;;;-0.43;100.00;99455.22;10374303;28;20038;-76
2022/03/25 05:50:04;;;;;;;;;;;;;;;-0.26;100.00;99458.84;10391412;28;19935;-74
2022/03/25 05:55:04;;;;;;;;;;;;;;;-0.12;100.00;99464.75;10399027;28;19948;-75
2022/03/25 06:00:08;;;;;;;;;;;;;;;0.13;100.00;99472.50;10405008;28;19936;-76
2022/03/25 06:05:15;;;;;;;;;;;;;;;0.53;100.00;99467.41;10384789;28;19925;-75
2022/03/25 06:10:16;;;;;;;;;;;;;;;0.55;100.00;99471.47;10393708;28;19970;-75
2022/03/25 06:15:16;;;;;;;;;;;;;;;0.97;100.00;99471.34;10376334;28;20056;-76
2022/03/25 06:20:20;;;;;;;;;;;;;;;1.34;100.00;99463.13;10395233;28;19933;-77
2022/03/25 06:25:20;;;;;;;;;;;;;;;1.74;100.00;99468.44;10419547;28;19992;-75
2022/03/25 06:30:22;;;;;;;;;;;;;;;1.89;100.00;99468.72;10395744;28;19952;-77
2022/03/25 06:35:23;;;;;;;;;;;;;;;2.21;100.00;99465.59;10410517;28;19928;-77
2022/03/25 06:40:25;;;;;;;;;;;;;;;2.64;100.00;99466.78;10392418;28;19988;-78
2022/03/25 06:45:25;;;;;;;;;;;;;;;3.16;100.00;99459.34;10381155;28;19929;-78
2022/03/25 06:50:26;;;;;;;;;;;;;;;3.25;100.00;99465.81;10392198;28;19975;-79
2022/03/25 06:55:28;;;;;;;;;;;;;;;3.14;100.00;99475.50;10382653;28;19965;-79
2022/03/25 07:00:31;;;;;;;;;;;;;;;3.42;100.00;99476.38;10365308;28;19932;-79
2022/03/25 07:05:32;;;;;;;;;;;;;;;3.58;100.00;99472.88;10399475;28;19925;-78
2022/03/25 07:10:33;;;;;;;;;;;;;;;4.09;100.00;99470.75;10410198;28;19929;-78
2022/03/25 07:15:36;;;;;;;;;;;;;;;5.00;100.00;99469.88;10391877;28;19951;-77
2022/03/25 07:20:37;;;;;;;;;;;;;;;4.83;100.00;99476.16;10397771;28;19948;-77
2022/03/25 07:25:37;;;;;;;;;;;;;;;5.04;100.00;99484.28;10383462;28;20003;-77
2022/03/25 07:30:38;;;;;;;;;;;;;;;5.48;100.00;99487.44;10372614;28;19999;-77
2022/03/25 07:35:38;;;;;;;;;;;;;;;5.46;100.00;99486.91;10397180;28;19929;-77
2022/03/25 07:40:39;;;;;;;;;;;;;;;5.55;100.00;99490.66;10366676;28;20710;-78
2022/03/25 07:45:40;;;;;;;;;;;;;;;5.59;100.00;99488.31;10390143;28;20018;-77
2022/03/25 07:50:40;;;;;;;;;;;;;;;5.96;100.00;99493.53;10396268;28;19983;-78
2022/03/25 07:55:44;;;;;;;;;;;;;;;6.10;100.00;99485.81;10406173;28;19926;-80
2022/03/25 08:00:45;;;;;;;;;;;;;;;6.68;100.00;99486.44;10400011;28;19929;-77
2022/03/25 08:05:50;;;;;;;;;;;;;;;6.91;100.00;99496.53;10389293;28;20103;-77
2022/03/25 08:10:55;;;;;;;;;;;;;;;7.60;100.00;99492.38;10388923;28;19955;-77
2022/03/25 08:15:55;;;;;;;;;;;;;;;8.11;100.00;99484.09;10400452;28;19951;-76
2022/03/25 08:20:57;;;;;;;;;;;;;;;8.07;98.40;99497.22;10388214;28;19933;-76
2022/03/25 08:31:17;;;;;;;;;;;;;;;8.40;90.71;99486.88;10411293;28;19929;-77
2022/03/25 08:36:20;;;;;;;;;;;;;;;8.36;92.01;99491.19;10399192;28;20015;-77
2022/03/25 08:41:23;;;;;;;;;;;;;;;8.82;88.65;99497.78;10410652;28;19929;-77
2022/03/25 08:46:24;;;;;;;;;;;;;;;9.19;83.83;99492.88;10415967;28;19930;-77
2022/03/25 08:51:24;;;;;;;;;;;;;;;9.54;80.24;99483.66;10422460;28;19944;-76
2022/03/25 08:56:25;;;;;;;;;;;;;;;9.89;78.18;99488.59;10405951;28;19909;-76
2022/03/25 09:01:25;;;;;;;;;;;;;;;9.94;73.89;99480.47;10395317;28;20023;-78
2022/03/25 09:06:25;;;;;;;;;;;;;;;10.20;69.79;99488.16;10386820;28;19956;-77
2022/03/25 09:11:27;;;;;;;;;;;;;;;10.52;63.35;99484.78;10398691;28;19949;-77
2022/03/25 09:16:28;;;;;;;;;;;;;;;10.77;61.50;99472.81;10389318;28;19933;-77
2022/03/25 09:21:28;;;;;;;;;;;;;;;11.11;62.80;99492.06;10424860;28;19926;-77
2022/03/25 09:26:29;;;;;;;;;;;;;;;11.48;59.97;99484.94;10404106;28;19929;-78
2022/03/25 09:31:29;;;;;;;;;;;;;;;11.59;58.59;99482.84;10367540;28;19979;-77
2022/03/25 09:36:29;;;;;;;;;;;;;;;11.82;60.03;99475.69;10382597;28;19939;-77
2022/03/25 09:41:31;;;;;;;;;;;;;;;12.11;53.46;99472.63;10369189;28;20880;-77
2022/03/25 09:46:32;;;;;;;;;;;;;;;12.45;52.30;99466.75;10416156;28;19933;-77
2022/03/25 09:51:34;;;;;;;;;;;;;;;12.45;52.39;99472.91;10397656;28;20016;-76
2022/03/25 09:56:34;;;;;;;;;;;;;;;12.89;50.23;99471.28;10418496;28;19929;-77
2022/03/25 10:01:35;;;;;;;;;;;;;;;13.25;48.65;99467.69;10432362;28;19947;-77
2022/03/25 10:06:46;;;;;;;;;;;;;;;13.45;49.01;99459.06;10444128;28;19929;-77
2022/03/25 10:11:46;;;;;;;;;;;;;;;13.69;46.63;99472.13;10408261;28;19976;-78
2022/03/25 10:16:49;;;;;;;;;;;;;;;14.22;46.13;99458.38;10402822;28;20444;-77
2022/03/25 10:21:57;;;;;;;;;;;;;;;14.55;43.88;99451.72;10407064;28;19968;-78
2022/03/25 10:27:04;;;;;;;;;;;;;;;14.94;43.00;99454.16;10415237;28;19941;-77
2022/03/25 10:32:06;;;;;;;;;;;;;;;15.40;43.60;99454.47;10430291;28;19933;-76
2022/03/25 10:37:09;;;;;;;;;;;;;;;16.04;40.57;99456.97;10380621;28;19929;-78
2022/03/25 10:42:12;;;;;;;;;;;;;;;16.46;37.92;99452.34;10434533;28;19956;-76
2022/03/25 10:47:21;;;;;;;;;;;;;;;16.67;40.41;99447.66;10414354;28;20245;-76
2022/03/25 10:52:22;;;;;;;;;;;;;;;16.88;38.21;99431.34;10386366;28;19952;-78
2022/03/25 10:57:23;;;;;;;;;;;;;;;16.77;37.27;99438.34;10417189;28;19928;-77
2022/03/25 11:02:24;;;;;;;;;;;;;;;17.20;39.01;99435.13;10415918;28;20402;-77
2022/03/25 11:07:25;;;;;;;;;;;;;;;17.54;35.67;99435.78;10413605;28;19933;-78
2022/03/25 11:12:26;;;;;;;;;;;;;;;17.59;36.09;99432.88;10390882;28;19933;-76
2022/03/25 11:17:26;;;;;;;;;;;;;;;17.77;34.67;99433.44;10441758;28;19929;-77
2022/03/25 11:22:27;;;;;;;;;;;;;;;18.07;31.83;99426.56;10391256;28;19932;-77
2022/03/25 11:27:32;;;;;;;;;;;;;;;18.05;30.56;99419.91;10403438;28;19932;-77
2022/03/25 11:32:32;;;;;;;;;;;;;;;18.01;30.99;99424.44;10412851;28;20485;-77
2022/03/25 11:37:35;;;;;;;;;;;;;;;18.00;30.48;99428.28;10399668;28;19936;-78
2022/03/25 11:42:39;;;;;;;;;;;;;;;17.53;29.43;99418.72;10386033;28;19932;-78
2022/03/25 11:47:39;;;;;;;;;;;;;;;17.61;31.78;99412.38;10413740;28;19967;-78
2022/03/25 11:52:40;;;;;;;;;;;;;;;17.96;30.64;99417.31;10415826;28;19988;-78
2022/03/25 11:57:40;;;;;;;;;;;;;;;17.87;29.76;99403.09;10430075;28;20083;-76
2022/03/25 12:02:59;;;;;;;;;;;;;;;18.30;30.07;99405.09;10412646;28;19972;-77
2022/03/25 12:08:18;;;;;;;;;;;;;;;18.06;28.38;99388.88;10420025;28;19933;-77
2022/03/25 12:13:21;;;;;;;;;;;;;;;18.36;29.77;99398.25;10422274;28;20001;-76
2022/03/25 12:18:40;;;;;;;;;;;;;;;17.88;28.71;99394.59;10461619;28;19968;-78
2022/03/25 12:23:53;;;;;;;;;;;;;;;17.89;28.89;99393.44;10466538;28;20207;-77
2022/03/25 12:28:53;;;;;;;;;;;;;;;18.23;27.08;99380.44;10439794;28;19934;-77
2022/03/25 12:33:54;;;;;;;;;;;;;;;18.62;28.32;99381.47;10440164;28;19913;-77
2022/03/25 12:38:55;;;;;;;;;;;;;;;18.93;25.65;99385.41;10436197;28;19929;-76
2022/03/25 12:43:57;;;;;;;;;;;;;;;18.78;26.73;99376.06;10415915;28;19949;-76
2022/03/25 12:49:05;;;;;;;;;;;;;;;18.68;26.84;99371.94;10435478;28;20394;-77
2022/03/25 12:54:17;;;;;;;;;;;;;;;19.11;26.15;99373.00;10412242;28;19939;-77
2022/03/25 12:59:32;;;;;;;;;;;;;;;19.43;26.78;99370.22;10455800;28;19933;-78
2022/03/25 13:04:33;;;;;;;;;;;;;;;19.00;24.98;99366.50;10412451;28;19933;-76
2022/03/25 13:09:33;;;;;;;;;;;;;;;19.42;28.03;99360.47;10393842;28;20471;-76
2022/03/25 13:14:35;;;;;;;;;;;;;;;19.13;25.03;99356.31;10389277;28;20664;-77
2022/03/25 13:19:36;;;;;;;;;;;;;;;20.41;23.79;99348.13;10395008;28;19933;-78
2022/03/25 13:24:53;;;;;;;;;;;;;;;19.83;23.52;99340.75;10397538;28;19940;-76
2022/03/25 13:29:54;;;;;;;;;;;;;;;20.53;24.30;99345.25;10400213;28;19929;-77
2022/03/25 13:35:08;;;;;;;;;;;;;;;20.32;26.48;99339.38;10414465;28;20062;-76
2022/03/25 13:40:27;;;;;;;;;;;;;;;20.06;26.42;99346.28;10403898;28;20356;-76
2022/03/25 13:45:28;;;;;;;;;;;;;;;19.57;26.53;99338.69;10403068;28;19933;-77
2022/03/25 13:50:28;;;;;;;;;;;;;;;20.21;25.79;99328.28;10393567;28;20291;-77
2022/03/25 13:55:31;;;;;;;;;;;;;;;20.36;27.49;99329.31;10397337;28;19932;-76
2022/03/25 14:00:35;;;;;;;;;;;;;;;19.66;27.16;99322.16;10403427;28;19925;-76
2022/03/25 14:05:36;;;;;;;;;;;;;;;20.25;24.73;99325.63;10397450;28;19928;-77
2022/03/25 14:10:53;;;;;;;;;;;;;;;19.36;23.77;99327.28;10397750;28;19933;-76
2022/03/25 14:15:53;;;;;;;;;;;;;;;18.86;25.57;99318.00;10417776;28;19929;-77
2022/03/25 14:21:00;;;;;;;;;;;;;;;18.86;25.15;99320.72;10426535;28;20334;-76
2022/03/25 14:26:01;;;;;;;;;;;;;;;18.94;26.97;99316.25;10382448;28;19979;-77
2022/03/25 14:31:04;;;;;;;;;;;;;;;18.63;25.27;99308.84;10421426;28;19932;-77
2022/03/25 14:36:05;;;;;;;;;;;;;;;18.25;25.90;99306.72;10414815;28;19933;-77
2022/03/25 14:41:05;;;;;;;;;;;;;;;18.66;28.34;99314.41;10414434;28;19936;-77
2022/03/25 14:46:05;;;;;;;;;;;;;;;18.16;28.05;99296.00;10421955;28;20039;-77
2022/03/25 14:51:06;;;;;;;;;;;;;;;17.96;25.12;99291.59;10408941;28;19951;-78
2022/03/25 14:56:06;;;;;;;;;;;;;;;17.80;27.59;99302.38;10415066;28;19933;-79
2022/03/25 15:01:07;;;;;;;;;;;;;;;17.61;25.47;99298.34;10417133;28;20000;-77
2022/03/25 15:06:08;;;;;;;;;;;;;;;17.48;28.90;99296.03;10408584;28;19941;-78
2022/03/25 15:11:10;;;;;;;;;;;;;;;17.52;29.37;99291.47;10400323;28;20350;-77
2022/03/25 15:16:12;;;;;;;;;;;;;;;17.24;26.51;99289.50;10397438;28;19932;-77
2022/03/25 15:21:12;;;;;;;;;;;;;;;16.96;27.24;99296.78;10385620;28;19995;-77
2022/03/25 15:26:13;;;;;;;;;;;;;;;16.98;27.47;99289.88;10416878;28;19925;-77
2022/03/25 15:36:35;;;;;;;;;;;;;;;16.36;27.87;99296.38;10401330;28;20492;-73
2022/03/25 15:41:36;;;;;;;;;;;;;;;16.31;27.98;99293.09;10431614;28;19925;-76
2022/03/25 15:46:36;;;;;;;;;;;;;;;16.32;27.58;99290.06;10423160;28;19929;-77
2022/03/25 15:51:37;;;;;;;;;;;;;;;16.24;28.30;99288.22;10416200;28;20402;-73
2022/03/25 15:56:38;;;;;;;;;;;;;;;16.04;28.99;99291.78;10415154;28;19939;-72
2022/03/25 16:01:38;;;;;;;;;;;;;;;16.10;27.83;99290.47;10417291;28;19933;-73
2022/03/25 16:06:38;;;;;;;;;;;;;;;15.96;28.16;99300.78;10411756;28;19933;-73
2022/03/25 16:11:39;;;;;;;;;;;;;;;15.78;28.69;99295.53;10436514;28;20008;-74
2022/03/25 16:16:41;;;;;;;;;;;;;;;15.72;29.01;99304.19;10403096;28;19956;-71
2022/03/25 16:21:41;;;;;;;;;;;;;;;15.55;29.09;99296.97;10394336;28;20126;-76
2022/03/25 16:26:43;;;;;;;;;;;;;;;15.42;29.70;99290.69;10393434;28;19982;-75
2022/03/25 16:31:46;;;;;;;;;;;;;;;15.31;29.96;99300.34;10417516;28;19940;-75
2022/03/25 16:36:47;;;;;;;;;;;;;;;15.16;30.56;99300.91;10413770;28;20686;-73
2022/03/25 16:41:47;;;;;;;;;;;;;;;15.08;33.66;99305.22;10380673;28;19939;-75
2022/03/25 16:46:48;;;;;;;;;;;;;;;14.94;31.68;99319.00;10411638;28;20276;-73
2022/03/25 16:51:48;;;;;;;;;;;;;;;14.85;32.73;99317.47;10415814;28;19967;-72
2022/03/25 16:56:49;;;;;;;;;;;;;;;14.60;33.54;99319.94;10429079;28;20005;-81
2022/03/25 17:01:53;;;;;;;;;;;;;;;14.54;33.34;99321.25;10402443;28;19921;-77
2022/03/25 17:06:53;;;;;;;;;;;;;;;14.40;33.65;99320.63;10451631;28;19940;-78
2022/03/25 17:11:54;;;;;;;;;;;;;;;14.21;34.90;99321.78;10416074;28;20346;-75
2022/03/25 17:16:55;;;;;;;;;;;;;;;14.11;34.81;99340.22;10412024;28;20006;-76
2022/03/25 17:21:56;;;;;;;;;;;;;;;13.92;35.68;99332.47;10384985;28;19941;-76
2022/03/25 17:26:58;;;;;;;;;;;;;;;13.81;36.15;99332.00;10414172;28;20042;-74
2022/03/25 17:31:58;;;;;;;;;;;;;;;13.65;35.99;99337.06;10400677;28;19933;-77
2022/03/25 17:37:01;;;;;;;;;;;;;;;13.60;36.01;99342.59;10385388;28;19964;-76
2022/03/25 17:42:02;;;;;;;;;;;;;;;13.32;38.26;99346.69;10411304;28;19932;-76
2022/03/25 17:47:03;;;;;;;;;;;;;;;13.25;36.60;99349.84;10396433;28;19940;-76
2022/03/25 17:52:08;;;;;;;;;;;;;;;13.09;37.56;99346.78;10423013;28;19931;-76
2022/03/25 17:57:08;;;;;;;;;;;;;;;12.93;37.44;99356.41;10394049;28;19933;-79
2022/03/25 18:02:09;;;;;;;;;;;;;;;12.61;39.42;99362.09;10410415;28;19933;-82
2022/03/25 18:07:10;;;;;;;;;;;;;;;12.51;38.89;99365.88;10402406;28;19937;-79
2022/03/25 18:12:10;;;;;;;;;;;;;;;12.46;38.66;99374.09;10434321;28;20364;-77
2022/03/25 18:17:12;;;;;;;;;;;;;;;12.29;40.09;99380.16;10424417;28;20763;-78
2022/03/25 18:22:12;;;;;;;;;;;;;;;12.14;39.68;99381.31;10435520;28;19924;-79
2022/03/25 18:27:14;;;;;;;;;;;;;;;11.91;41.32;99380.53;10429496;28;19929;-79
2022/03/25 18:32:16;;;;;;;;;;;;;;;11.75;41.45;99399.97;10453576;28;19984;-77
2022/03/25 18:37:18;;;;;;;;;;;;;;;11.56;41.51;99398.19;10429966;28;20015;-80
2022/03/25 18:42:21;;;;;;;;;;;;;;;11.68;41.10;99409.22;10447560;28;19940;-79
2022/03/25 18:47:21;;;;;;;;;;;;;;;11.58;39.98;99406.75;10418766;28;19924;-82
2022/03/25 18:52:24;;;;;;;;;;;;;;;11.58;40.92;99408.66;10436663;28;19959;-85
2022/03/25 18:57:28;;;;;;;;;;;;;;;11.58;40.18;99408.66;10415640;28;20296;-81
2022/03/25 19:02:32;;;;;;;;;;;;;;;11.34;40.43;99416.97;10421353;28;19929;-79
2022/03/25 19:07:34;;;;;;;;;;;;;;;11.24;42.33;99417.94;10423094;28;19932;-79
2022/03/25 19:12:36;;;;;;;;;;;;;;;11.19;41.62;99423.41;10427229;28;19960;-79
2022/03/25 19:17:39;;;;;;;;;;;;;;;10.98;42.42;99427.59;10442824;28;19928;-80
2022/03/25 19:22:43;;;;;;;;;;;;;;;10.79;42.83;99433.03;10429532;28;19960;-76
2022/03/25 19:27:44;;;;;;;;;;;;;;;10.81;42.82;99436.22;10456716;28;19921;-82
2022/03/25 19:32:49;;;;;;;;;;;;;;;10.74;43.33;99443.88;10396972;28;19955;-78
2022/03/25 19:37:50;;;;;;;;;;;;;;;10.48;44.17;99443.47;10445380;28;19909;-77
2022/03/25 19:42:53;;;;;;;;;;;;;;;10.38;44.40;99449.81;10449255;28;19933;-79
2022/03/25 19:47:54;;;;;;;;;;;;;;;10.27;44.76;99444.91;10442412;28;19979;-78
2022/03/25 19:52:56;;;;;;;;;;;;;;;10.31;45.10;99445.91;10407261;28;19936;-78
2022/03/25 19:57:58;;;;;;;;;;;;;;;10.16;44.64;99445.03;10430443;28;19936;-79
2022/03/25 20:02:59;;;;;;;;;;;;;;;10.00;45.82;99449.00;10421684;28;19933;-77
2022/03/25 20:07:59;;;;;;;;;;;;;;;9.85;47.77;99454.59;10426918;28;19928;-77
2022/03/25 20:13:00;;;;;;;;;;;;;;;9.76;47.51;99448.28;10423915;28;19925;-77
2022/03/25 20:18:00;;;;;;;;;;;;;;;9.68;49.11;99450.50;10425408;28;19979;-77
2022/03/25 20:23:01;;;;;;;;;;;;;;;9.54;50.85;99454.97;10422643;28;19932;-76
2022/03/25 20:28:04;;;;;;;;;;;;;;;9.35;50.64;99456.81;10412717;28;19933;-77
2022/03/25 20:33:05;;;;;;;;;;;;;;;9.30;51.03;99465.69;10400311;28;19982;-78
2022/03/25 20:38:07;;;;;;;;;;;;;;;9.23;50.82;99462.56;10422826;28;20653;-80
2022/03/25 20:43:07;;;;;;;;;;;;;;;9.14;52.00;99464.25;10422685;28;19937;-79
2022/03/25 20:48:08;;;;;;;;;;;;;;;8.97;52.36;99471.97;10415203;28;19972;-80
2022/03/25 20:53:08;;;;;;;;;;;;;;;8.91;53.47;99468.53;10392019;28;19933;-76
2022/03/25 20:58:10;;;;;;;;;;;;;;;8.85;53.41;99483.03;10431747;28;19952;-78
2022/03/25 21:03:10;;;;;;;;;;;;;;;8.70;55.79;99492.00;10449578;28;19940;-77
2022/03/25 21:08:11;;;;;;;;;;;;;;;8.70;57.71;99501.91;10455724;28;19955;-76
2022/03/25 21:13:13;;;;;;;;;;;;;;;8.60;56.91;99502.78;10440149;28;19960;-78
2022/03/25 21:18:14;;;;;;;;;;;;;;;8.49;57.23;99504.72;10433891;28;20374;-78
2022/03/25 21:23:14;;;;;;;;;;;;;;;8.46;58.32;99516.00;10404308;28;19933;-77
2022/03/25 21:28:17;;;;;;;;;;;;;;;8.55;57.59;99521.56;10401624;28;19939;-79
2022/03/25 21:33:18;;;;;;;;;;;;;;;8.42;57.55;99516.84;10420430;28;21073;-77
2022/03/25 21:38:18;;;;;;;;;;;;;;;8.31;58.26;99513.38;10416264;28;19935;-78
2022/03/25 21:43:20;;;;;;;;;;;;;;;8.16;60.88;99530.34;10404022;28;20016;-78
2022/03/25 21:48:21;;;;;;;;;;;;;;;8.02;60.31;99523.97;10376490;28;19983;-77
2022/03/25 21:53:22;;;;;;;;;;;;;;;7.93;62.04;99529.09;10414452;28;20388;-77
2022/03/25 21:58:23;;;;;;;;;;;;;;;7.83;62.54;99537.16;10425331;28;19933;-76
2022/03/25 22:03:24;;;;;;;;;;;;;;;7.85;63.65;99534.22;10406887;28;19952;-77
2022/03/25 22:08:25;;;;;;;;;;;;;;;7.78;66.82;99533.72;10413227;28;19932;-77
2022/03/25 22:13:27;;;;;;;;;;;;;;;7.62;66.78;99535.66;10386551;28;19925;-79
2022/03/25 22:18:30;;;;;;;;;;;;;;;7.60;68.00;99538.59;10437852;28;20306;-77
2022/03/25 22:23:34;;;;;;;;;;;;;;;7.51;66.61;99540.22;10417329;28;20019;-78
2022/03/25 22:28:35;;;;;;;;;;;;;;;7.40;67.69;99542.09;10416510;28;20007;-78
2022/03/25 22:33:37;;;;;;;;;;;;;;;7.37;70.18;99552.53;10399766;28;19940;-78
2022/03/25 22:38:37;;;;;;;;;;;;;;;7.25;72.42;99549.34;10413034;28;19940;-77
2022/03/25 22:43:38;;;;;;;;;;;;;;;7.04;73.38;99549.38;10419670;28;20311;-76
2022/03/25 22:48:38;;;;;;;;;;;;;;;6.92;75.36;99535.50;10439977;28;19981;-76
2022/03/25 22:53:40;;;;;;;;;;;;;;;6.75;79.28;99542.97;10423805;28;19928;-76
2022/03/25 22:58:41;;;;;;;;;;;;;;;6.55;83.43;99539.22;10430076;28;19968;-76
2022/03/25 23:03:42;;;;;;;;;;;;;;;6.29;85.66;99534.91;10420914;28;19936;-77
2022/03/25 23:08:42;;;;;;;;;;;;;;;5.93;94.08;99544.66;10412298;28;19929;-76
2022/03/25 23:13:44;;;;;;;;;;;;;;;5.66;98.90;99548.25;10419049;28;19940;-75
2022/03/25 23:18:48;;;;;;;;;;;;;;;5.19;100.00;99548.25;10425077;28;20037;-76
2022/03/25 23:23:51;;;;;;;;;;;;;;;4.74;100.00;99556.66;10395997;28;20012;-76
2022/03/25 23:28:51;;;;;;;;;;;;;;;4.98;100.00;99557.16;10388398;28;19999;-76
2022/03/25 23:33:52;;;;;;;;;;;;;;;5.51;97.09;99566.81;10420033;28;20009;-75
2022/03/25 23:38:52;;;;;;;;;;;;;;;5.57;93.38;99568.44;10415711;28;19940;-77
2022/03/25 23:43:53;;;;;;;;;;;;;;;5.67;97.36;99575.72;10412997;28;19928;-79
2022/03/25 23:48:53;;;;;;;;;;;;;;;5.79;90.49;99581.63;10399296;28;19933;-76
2022/03/25 23:53:54;;;;;;;;;;;;;;;5.85;90.32;99577.94;10414690;28;19937;-77
2022/03/25 23:58:58;;;;;;;;;;;;;;;5.76;93.44;99581.31;10418565;28;19959;-77
